Time;durP1;ratioP1;P1;durP2;ratioP2;P2;SDS_P1;SDS_P2;PMS_P1;PMS_P2;Temp;Humidity;BMP_temperature;BMP_pressure;BME280_temperature;BME280_humidity;BME280_pressure;Samples;Min_cycle;Max_cycle;Signal;HPM_P1;HPM_P2
2023/10/10 00:01:23;;;;;;;3.08;1.30;;;14.40;99.90;;;;;;4958547;28;20243;-88
2023/10/10 00:03:49;;;;;;;3.40;1.27;;;14.30;99.90;;;;;;4958783;28;20566;-84
2023/10/10 00:06:16;;;;;;;8.48;1.70;;;14.30;99.90;;;;;;4975528;28;20168;-82
2023/10/10 00:08:43;;;;;;;3.60;1.40;;;14.30;99.90;;;;;;4958528;28;20184;-84
2023/10/10 00:11:19;;;;;;;6.22;1.45;;;14.30;99.90;;;;;;4975846;28;20200;-83
2023/10/10 00:13:46;;;;;;;3.65;1.35;;;14.30;99.90;;;;;;4975829;28;20176;-85
2023/10/10 00:16:24;;;;;;;7.88;1.88;;;14.30;99.90;;;;;;4975442;28;20212;-84
2023/10/10 00:18:50;;;;;;;5.78;1.70;;;14.30;99.90;;;;;;4975714;28;20160;-83
2023/10/10 00:21:23;;;;;;;8.15;1.52;;;14.30;99.90;;;;;;4975224;28;20222;-84
2023/10/10 00:23:54;;;;;;;7.60;1.73;;;14.30;99.90;;;;;;4957989;28;20224;-84
2023/10/10 00:26:21;;;;;;;8.48;2.03;;;14.30;99.90;;;;;;4975614;28;20209;-84
2023/10/10 00:28:54;;;;;;;7.55;1.65;;;14.30;99.90;;;;;;4958426;28;20274;-85
2023/10/10 00:31:25;;;;;;;7.80;1.60;;;14.20;99.90;;;;;;4975487;28;20199;-85
2023/10/10 00:47:24;;;;;;;6.65;1.63;;;14.20;99.90;;;;;;4976032;28;20217;-85
2023/10/10 00:49:50;;;;;;;4.32;1.63;;;14.30;99.90;;;;;;4975293;28;20604;-84
2023/10/10 00:52:17;;;;;;;3.55;1.73;;;14.30;99.90;;;;;;4958092;28;20204;-89
2023/10/10 00:54:43;;;;;;;5.53;1.63;;;14.30;99.90;;;;;;4958262;28;20189;-85
2023/10/10 00:57:14;;;;;;;5.45;1.55;;;14.30;99.90;;;;;;4974961;28;20654;-82
2023/10/10 00:59:44;;;;;;;3.85;1.35;;;14.20;99.90;;;;;;4957872;28;20192;-84
2023/10/10 01:02:14;;;;;;;5.22;1.45;;;14.20;99.90;;;;;;4975014;28;20157;-84
2023/10/10 01:04:55;;;;;;;5.72;1.50;;;14.20;99.90;;;;;;4974941;28;20157;-83
2023/10/10 01:07:22;;;;;;;4.22;1.20;;;14.20;99.90;;;;;;4957735;28;20176;-83
2023/10/10 01:10:36;;;;;;;2.35;1.30;;;14.20;99.90;;;;;;4975263;28;20173;-84
2023/10/10 01:12:39;;;;;;;4.70;1.30;;;14.20;99.90;;;;;;4967042;28;20204;-86
2023/10/10 01:15:24;;;;;;;6.95;1.60;;;14.20;99.90;;;;;;4975067;28;20171;-84
2023/10/10 01:17:51;;;;;;;4.40;1.50;;;14.20;99.90;;;;;;4974929;28;20271;-84
2023/10/10 01:20:18;;;;;;;4.93;1.80;;;14.20;99.90;;;;;;4974784;28;20172;-89
2023/10/10 01:22:48;;;;;;;3.63;1.58;;;14.20;99.90;;;;;;4957685;28;20584;-84
2023/10/10 01:28:03;;;;;;;3.85;1.50;;;14.20;99.90;;;;;;4979013;28;20274;-85
2023/10/10 01:33:22;;;;;;;5.75;1.83;;;14.20;99.90;;;;;;4978705;28;20203;-85
2023/10/10 01:36:02;;;;;;;6.40;1.77;;;14.20;99.90;;;;;;4960941;28;20233;-85
2023/10/10 01:38:47;;;;;;;3.22;1.42;;;14.20;99.90;;;;;;4961316;28;20838;-90
2023/10/10 01:41:31;;;;;;;7.70;1.83;;;14.20;99.90;;;;;;4978440;28;20164;-83
2023/10/10 01:44:08;;;;;;;5.60;1.95;;;14.20;99.90;;;;;;4978472;28;20175;-86
2023/10/10 01:46:35;;;;;;;5.97;1.88;;;14.20;99.90;;;;;;4978472;28;20566;-84
2023/10/10 01:49:02;;;;;;;3.13;1.90;;;14.20;99.90;;;;;;4961160;28;20199;-86
2023/10/10 01:51:33;;;;;;;6.35;2.03;;;14.20;99.90;;;;;;4978043;28;20604;-88
2023/10/10 01:54:14;;;;;;;5.03;2.03;;;14.20;99.90;;;;;;4978331;28;20168;-84
2023/10/10 01:56:40;;;;;;;4.60;2.17;;;14.10;99.90;;;;;;4978280;28;20538;-86
2023/10/10 01:59:10;;;;;;;7.40;2.30;;;14.10;99.90;;;;;;4960670;28;20570;-87
2023/10/10 02:01:35;;;;;;;6.28;2.28;;;14.10;99.90;;;;;;4977934;28;20185;-82
2023/10/10 02:04:06;;;;;;;9.50;2.50;;;14.10;99.90;;;;;;4977657;28;20228;-86
2023/10/10 02:06:35;;;;;;;8.65;2.63;;;14.10;99.90;;;;;;4977432;28;20173;-83
2023/10/10 02:11:54;;;;;;;7.85;2.47;;;14.10;99.90;;;;;;4977788;28;20219;-85
2023/10/10 02:14:30;;;;;;;6.15;2.83;;;14.10;99.90;;;;;;4960450;28;20234;-87
2023/10/10 02:17:06;;;;;;;7.00;3.08;;;14.10;99.90;;;;;;4978326;28;20196;-91
2023/10/10 02:19:39;;;;;;;5.95;2.40;;;14.00;99.90;;;;;;4977331;28;20623;-83
2023/10/10 02:22:23;;;;;;;6.45;2.50;;;14.00;99.90;;;;;;4977358;28;20161;-82
2023/10/10 02:24:51;;;;;;;6.78;2.67;;;14.00;99.90;;;;;;4977343;28;20192;-83
2023/10/10 02:27:22;;;;;;;5.70;2.53;;;13.90;99.90;;;;;;4977923;28;20169;-85
2023/10/10 02:29:48;;;;;;;4.85;2.58;;;13.90;99.90;;;;;;4960122;28;20236;-88
2023/10/10 02:32:18;;;;;;;9.80;2.70;;;13.90;99.90;;;;;;4977617;28;20575;-83
2023/10/10 02:42:33;;;;;;;5.40;2.67;;;13.90;99.90;;;;;;4939274;29;20894;-88
2023/10/10 02:45:00;;;;;;;4.38;2.60;;;13.90;99.90;;;;;;4938789;29;20178;-85
2023/10/10 02:47:32;;;;;;;5.97;2.53;;;13.90;99.90;;;;;;4921700;29;20182;-83
2023/10/10 02:50:14;;;;;;;6.07;2.92;;;13.90;99.90;;;;;;4921744;29;20241;-84
2023/10/10 02:52:45;;;;;;;6.05;3.10;;;13.90;99.90;;;;;;4938392;29;20158;-83
2023/10/10 02:55:22;;;;;;;3.78;3.10;;;13.80;99.90;;;;;;4938554;29;20577;-84
2023/10/10 02:57:53;;;;;;;9.10;3.80;;;13.80;99.90;;;;;;4937218;29;20209;-84
2023/10/10 03:02:53;;;;;;;6.93;3.75;;;13.80;99.90;;;;;;4938522;29;20174;-83
2023/10/10 03:08:13;;;;;;;6.22;3.05;;;13.90;99.90;;;;;;4938222;29;20220;-83
2023/10/10 03:10:45;;;;;;;7.43;3.20;;;13.90;99.90;;;;;;4938022;29;20221;-84
2023/10/10 03:15:56;;;;;;;6.60;3.30;;;13.90;99.90;;;;;;4937932;29;20170;-83
2023/10/10 03:18:30;;;;;;;7.32;3.63;;;13.90;99.90;;;;;;4937840;29;20186;-84
2023/10/10 03:23:53;;;;;;;6.72;3.08;;;13.90;99.90;;;;;;4938074;29;20205;-85
2023/10/10 03:29:20;;;;;;;6.20;3.20;;;13.90;99.90;;;;;;4937936;29;20174;-89
2023/10/10 03:31:49;;;;;;;6.18;3.30;;;13.90;99.90;;;;;;4937942;29;20616;-86
2023/10/10 03:37:05;;;;;;;5.10;3.30;;;13.90;99.90;;;;;;4937463;29;20244;-84
2023/10/10 03:39:49;;;;;;;5.60;2.60;;;13.90;99.90;;;;;;4937926;29;20182;-84
2023/10/10 05:23:52;;;;;;;8.45;2.30;;;14.00;99.90;;;;;;4940217;29;20260;-92
2023/10/10 05:26:20;;;;;;;3.90;1.80;;;14.00;99.90;;;;;;4939393;29;20260;-88
2023/10/10 05:28:48;;;;;;;5.30;1.98;;;14.00;99.90;;;;;;4940397;29;20170;-87
2023/10/10 05:31:19;;;;;;;6.47;2.00;;;14.00;99.90;;;;;;4940270;29;20615;-85
2023/10/10 05:33:47;;;;;;;3.42;1.98;;;14.00;99.90;;;;;;4938915;29;20174;-86
2023/10/10 05:36:13;;;;;;;4.55;1.85;;;14.00;99.90;;;;;;4922369;29;20684;-86
2023/10/10 05:38:41;;;;;;;4.80;1.80;;;14.00;99.90;;;;;;4939816;29;20525;-84
2023/10/10 05:41:10;;;;;;;5.45;2.20;;;14.00;99.90;;;;;;4938712;29;20178;-83
2023/10/10 05:43:36;;;;;;;9.85;2.13;;;14.00;99.90;;;;;;4939742;29;20204;-82
2023/10/10 05:46:05;;;;;;;5.32;2.33;;;14.00;99.90;;;;;;4938741;29;20189;-84
2023/10/10 05:48:35;;;;;;;4.47;2.22;;;14.00;99.90;;;;;;4939964;29;20200;-84
2023/10/10 05:51:03;;;;;;;7.00;1.90;;;14.10;99.90;;;;;;4939705;29;20162;-84
2023/10/10 05:53:33;;;;;;;7.75;2.20;;;14.10;99.90;;;;;;4939424;29;20181;-84
2023/10/10 05:55:59;;;;;;;5.65;2.10;;;14.10;99.90;;;;;;4922521;29;20621;-82
2023/10/10 05:58:27;;;;;;;8.15;1.67;;;14.10;99.90;;;;;;4938378;29;20186;-82
2023/10/10 06:00:54;;;;;;;9.27;2.25;;;14.10;99.90;;;;;;4939556;29;20200;-87
2023/10/10 06:03:21;;;;;;;5.75;2.28;;;14.10;99.90;;;;;;4939500;29;20181;-84
2023/10/10 06:05:49;;;;;;;4.72;2.22;;;14.10;99.90;;;;;;4922496;29;20182;-90
2023/10/10 06:08:16;;;;;;;3.50;1.80;;;14.10;99.90;;;;;;4922244;29;20189;-91
2023/10/10 06:10:43;;;;;;;5.95;2.40;;;14.20;99.90;;;;;;4939969;29;20205;-88
2023/10/10 06:13:11;;;;;;;3.38;1.98;;;14.20;99.90;;;;;;4939698;29;20170;-85
2023/10/10 06:15:36;;;;;;;6.88;2.40;;;14.20;99.90;;;;;;4939235;29;20257;-87
2023/10/10 06:18:13;;;;;;;5.43;2.42;;;14.20;99.90;;;;;;4938994;29;20288;-85
2023/10/10 06:20:43;;;;;;;6.70;2.78;;;14.20;99.90;;;;;;4940087;29;20166;-91
2023/10/10 06:23:20;;;;;;;7.45;3.17;;;14.20;99.90;;;;;;4938644;29;20171;-90
2023/10/10 06:25:46;;;;;;;6.13;3.05;;;14.20;99.90;;;;;;4923180;29;20261;-91
2023/10/10 06:28:25;;;;;;;5.63;3.13;;;14.30;99.90;;;;;;4938599;29;20270;-90
2023/10/10 06:30:52;;;;;;;7.30;3.10;;;14.30;99.90;;;;;;4939839;29;20170;-92
2023/10/10 06:33:29;;;;;;;8.55;3.03;;;14.30;99.90;;;;;;4939780;29;20185;-90
2023/10/10 06:41:38;;;;;;;5.55;3.45;;;14.30;99.90;;;;;;4939775;29;20256;-85
2023/10/10 06:44:05;;;;;;;5.28;3.25;;;14.30;99.90;;;;;;4938695;29;20189;-84
2023/10/10 06:46:37;;;;;;;7.95;3.55;;;14.40;99.90;;;;;;4938571;29;20229;-84
2023/10/10 06:49:06;;;;;;;5.53;3.90;;;14.40;99.90;;;;;;4938561;29;20158;-84
2023/10/10 06:51:39;;;;;;;6.28;3.70;;;14.40;99.90;;;;;;4938439;29;20162;-86
2023/10/10 06:54:27;;;;;;;7.03;3.85;;;14.40;99.90;;;;;;4938627;29;20158;-85
2023/10/10 06:57:04;;;;;;;8.23;3.60;;;14.50;99.90;;;;;;4938565;29;20703;-85
2023/10/10 06:59:31;;;;;;;7.72;3.92;;;14.50;99.90;;;;;;4938809;29;20530;-87
2023/10/10 07:02:12;;;;;;;6.32;3.45;;;14.50;99.90;;;;;;4938414;29;20192;-85
2023/10/10 07:04:38;;;;;;;8.70;3.60;;;14.50;99.90;;;;;;4938476;29;20601;-85
2023/10/10 07:07:06;;;;;;;8.00;3.65;;;14.50;99.90;;;;;;4937982;29;20177;-84
2023/10/10 07:09:36;;;;;;;6.15;3.30;;;14.60;99.90;;;;;;4938302;29;20703;-91
2023/10/10 07:12:11;;;;;;;6.72;3.25;;;14.60;99.90;;;;;;4938322;29;20512;-84
2023/10/10 07:14:44;;;;;;;12.85;3.42;;;14.70;99.90;;;;;;4921412;29;20177;-90
2023/10/10 07:17:13;;;;;;;7.20;2.90;;;14.70;99.90;;;;;;4921655;29;20329;-85
2023/10/10 07:22:33;;;;;;;8.35;2.65;;;14.80;99.90;;;;;;4937693;29;20273;-87
2023/10/10 07:25:17;;;;;;;3.33;1.98;;;14.80;99.90;;;;;;4937813;29;20506;-82
2023/10/10 07:27:43;;;;;;;5.15;2.20;;;14.90;99.90;;;;;;4912503;29;20194;-86
2023/10/10 07:32:48;;;;;;;6.82;2.00;;;15.00;99.90;;;;;;4918912;29;20167;-85
2023/10/10 07:35:15;;;;;;;5.00;2.00;;;15.10;99.90;;;;;;4931692;29;20212;-85
2023/10/10 07:37:44;;;;;;;4.00;2.15;;;15.10;99.90;;;;;;4937591;29;20229;-85
2023/10/10 07:42:40;;;;;;;6.20;2.20;;;15.10;99.90;;;;;;4937825;29;20560;-84
2023/10/10 07:45:15;;;;;;;4.45;2.33;;;15.20;99.90;;;;;;4937885;29;20185;-85
2023/10/10 07:50:27;;;;;;;8.63;2.40;;;15.20;99.90;;;;;;4923270;29;20185;-89
2023/10/10 07:52:53;;;;;;;5.25;2.40;;;15.30;99.90;;;;;;4937422;29;20174;-87
2023/10/10 07:55:22;;;;;;;3.42;1.98;;;15.30;99.90;;;;;;4937473;29;20243;-84
2023/10/10 07:57:59;;;;;;;4.63;2.20;;;15.30;99.90;;;;;;4937464;29;20210;-88
2023/10/10 08:00:36;;;;;;;3.97;2.15;;;15.30;99.90;;;;;;4920444;29;20188;-88
2023/10/10 08:03:12;;;;;;;6.93;2.30;;;15.30;99.90;;;;;;4937417;29;20248;-84
2023/10/10 08:05:40;;;;;;;6.25;2.22;;;15.30;99.90;;;;;;4937531;29;20162;-84
2023/10/10 08:08:07;;;;;;;8.90;2.38;;;15.40;99.90;;;;;;4918183;29;20577;-83
2023/10/10 08:10:39;;;;;;;3.13;1.95;;;15.40;99.90;;;;;;4933864;29;20200;-85
2023/10/10 08:13:11;;;;;;;4.25;2.30;;;15.50;99.90;;;;;;4937263;29;20714;-83
2023/10/10 08:15:56;;;;;;;5.35;1.95;;;15.50;99.90;;;;;;4937262;29;20162;-88
2023/10/10 08:21:14;;;;;;;5.05;1.73;;;15.60;99.90;;;;;;4937006;29;20177;-84
2023/10/10 08:23:42;;;;;;;4.30;1.70;;;15.60;99.90;;;;;;4936828;29;20643;-84
2023/10/10 08:26:18;;;;;;;4.18;1.65;;;15.70;99.90;;;;;;4935876;29;20229;-83
2023/10/10 08:28:50;;;;;;;3.67;1.60;;;15.70;99.90;;;;;;4936968;29;20185;-83
2023/10/10 08:31:16;;;;;;;3.67;1.73;;;15.70;99.90;;;;;;4919816;29;20182;-84
2023/10/10 08:33:46;;;;;;;3.63;1.60;;;15.70;99.90;;;;;;4920708;29;20423;-84
2023/10/10 08:36:24;;;;;;;6.78;1.63;;;15.80;99.90;;;;;;4940534;29;20221;-85
2023/10/10 08:38:56;;;;;;;3.30;1.50;;;15.80;99.90;;;;;;4940407;29;20248;-84
2023/10/10 08:41:26;;;;;;;8.52;1.70;;;15.80;99.90;;;;;;4939686;29;20201;-87
2023/10/10 08:43:58;;;;;;;3.00;1.90;;;15.80;99.90;;;;;;4941039;29;20217;-88
2023/10/10 08:46:31;;;;;;;3.50;2.25;;;15.70;99.90;;;;;;4923747;29;20180;-84
2023/10/10 08:48:59;;;;;;;3.03;2.00;;;15.60;99.90;;;;;;4940677;29;20614;-84
2023/10/10 08:51:33;;;;;;;4.68;1.90;;;15.60;99.90;;;;;;4923696;29;20186;-88
2023/10/10 08:54:09;;;;;;;3.10;1.70;;;15.60;99.90;;;;;;4940590;29;20157;-83
2023/10/10 08:56:38;;;;;;;5.40;2.10;;;15.60;99.90;;;;;;4940629;29;20265;-84
2023/10/10 08:59:09;;;;;;;3.42;1.90;;;15.60;99.90;;;;;;4940771;29;20178;-85
2023/10/10 09:01:38;;;;;;;3.92;2.20;;;15.60;99.90;;;;;;4940428;29;20184;-83
2023/10/10 09:04:05;;;;;;;4.18;2.40;;;15.70;99.90;;;;;;4940639;29;20170;-85
2023/10/10 09:06:43;;;;;;;4.22;1.98;;;15.70;99.90;;;;;;4940579;29;20193;-84
2023/10/10 09:09:33;;;;;;;4.85;2.45;;;15.70;99.90;;;;;;4923169;29;20252;-85
2023/10/10 09:11:56;;;;;;;5.82;2.25;;;15.70;99.90;;;;;;4940094;29;20189;-84
2023/10/10 09:14:49;;;;;;;5.35;2.65;;;15.70;99.90;;;;;;4940375;29;20176;-87
2023/10/10 09:17:35;;;;;;;6.00;2.80;;;15.80;99.90;;;;;;4940389;29;20700;-84
2023/10/10 09:20:22;;;;;;;4.50;3.00;;;15.70;99.90;;;;;;4940345;29;20193;-88
2023/10/10 09:22:54;;;;;;;7.03;3.35;;;15.70;99.90;;;;;;4940062;29;20566;-86
2023/10/10 09:25:25;;;;;;;7.18;3.50;;;15.80;99.90;;;;;;4923181;29;20217;-86
2023/10/10 09:28:00;;;;;;;6.75;3.33;;;15.80;99.90;;;;;;4940357;29;20217;-84
2023/10/10 09:30:40;;;;;;;6.90;3.60;;;15.90;99.90;;;;;;4940257;29;20185;-84
2023/10/10 09:35:54;;;;;;;5.18;3.70;;;16.10;99.90;;;;;;4940042;29;20213;-83
2023/10/10 09:38:26;;;;;;;15.15;4.80;;;16.20;99.90;;;;;;4939803;29;20213;-85
2023/10/10 09:41:10;;;;;;;13.38;5.40;;;16.20;99.90;;;;;;4921337;29;20563;-89
2023/10/10 09:44:01;;;;;;;8.05;5.35;;;16.30;99.90;;;;;;4906312;29;20625;-84
2023/10/10 09:46:36;;;;;;;6.55;4.88;;;16.30;99.90;;;;;;4920826;29;20173;-84
2023/10/10 09:54:25;;;;;;;9.38;5.57;;;16.30;99.90;;;;;;4900112;29;20198;-85
2023/10/10 09:56:53;;;;;;;9.48;5.55;;;16.30;99.90;;;;;;4919379;29;20545;-83
2023/10/10 09:59:20;;;;;;;7.45;5.28;;;16.30;99.90;;;;;;4920555;29;20273;-84
2023/10/10 10:01:59;;;;;;;12.50;5.63;;;16.30;99.90;;;;;;4920421;29;20392;-82
2023/10/10 10:04:36;;;;;;;11.13;5.50;;;16.30;99.90;;;;;;4919343;29;20229;-84
2023/10/10 10:07:26;;;;;;;12.55;4.88;;;16.30;99.90;;;;;;4931130;29;20297;-88
2023/10/10 10:10:16;;;;;;;8.00;5.63;;;16.30;99.90;;;;;;4903417;29;20186;-85
2023/10/10 10:12:59;;;;;;;9.60;5.57;;;16.30;99.90;;;;;;4922072;29;20181;-88
2023/10/10 10:16:09;;;;;;;9.77;5.93;;;16.30;99.90;;;;;;4922250;29;20185;-83
2023/10/10 10:18:44;;;;;;;11.40;5.70;;;16.30;99.90;;;;;;4939134;29;20166;-85
2023/10/10 10:21:27;;;;;;;9.15;6.25;;;16.30;99.90;;;;;;4939171;29;20201;-83
2023/10/10 10:24:14;;;;;;;11.27;7.15;;;16.40;99.90;;;;;;4938796;29;20225;-83
2023/10/10 10:26:44;;;;;;;12.15;6.68;;;16.60;99.90;;;;;;4939137;29;20194;-87
2023/10/10 10:29:28;;;;;;;9.43;6.07;;;16.80;99.90;;;;;;4939265;29;20649;-83
2023/10/10 10:32:00;;;;;;;7.00;6.10;;;16.90;99.90;;;;;;4937762;29;20166;-84
2023/10/10 10:37:12;;;;;;;8.13;6.43;;;17.20;99.90;;;;;;4939141;29;20228;-90
2023/10/10 10:40:21;;;;;;;7.57;5.85;;;17.20;99.90;;;;;;4922552;29;20276;-90
2023/10/10 10:42:34;;;;;;;6.85;5.30;;;17.30;99.90;;;;;;4939206;29;20190;-89
2023/10/10 10:45:38;;;;;;;7.55;4.90;;;17.30;99.90;;;;;;4922170;29;20174;-86
2023/10/10 10:48:29;;;;;;;5.97;4.63;;;17.20;99.90;;;;;;4922076;29;20185;-88
2023/10/10 10:51:22;;;;;;;6.47;4.82;;;17.20;99.90;;;;;;4939577;29;20173;-87
2023/10/10 10:53:58;;;;;;;6.25;4.55;;;17.20;99.90;;;;;;4939109;29;20178;-88
2023/10/10 10:59:13;;;;;;;5.88;4.43;;;17.30;99.90;;;;;;4939560;29;20178;-90
2023/10/10 11:01:42;;;;;;;8.40;4.68;;;17.30;99.90;;;;;;4921948;29;20722;-84
2023/10/10 11:04:15;;;;;;;7.05;4.40;;;17.40;99.90;;;;;;4938294;29;20317;-85
2023/10/10 11:06:52;;;;;;;9.43;4.70;;;17.40;99.90;;;;;;4938706;29;20523;-85
2023/10/10 11:09:35;;;;;;;8.40;4.55;;;17.40;99.90;;;;;;4938268;29;20185;-83
2023/10/10 11:12:02;;;;;;;8.57;4.18;;;17.40;99.90;;;;;;4938419;29;20170;-90
2023/10/10 11:14:33;;;;;;;6.63;3.88;;;17.50;99.90;;;;;;4938822;29;20170;-84
2023/10/10 11:16:59;;;;;;;8.25;4.22;;;17.50;99.90;;;;;;4938061;29;20289;-84
2023/10/10 11:21:59;;;;;;;6.15;4.80;;;17.50;99.90;;;;;;4937972;29;20185;-85
2023/10/10 11:24:29;;;;;;;7.13;4.07;;;17.60;99.90;;;;;;4937739;29;20173;-83
2023/10/10 11:29:45;;;;;;;8.70;4.32;;;17.80;99.90;;;;;;4938363;29;20181;-88
2023/10/10 11:32:24;;;;;;;8.18;3.63;;;17.80;99.90;;;;;;4938127;29;20165;-87
2023/10/10 11:34:51;;;;;;;7.13;4.22;;;17.80;99.90;;;;;;4938147;29;20169;-89
2023/10/10 11:37:21;;;;;;;7.63;4.30;;;17.80;99.90;;;;;;4937653;29;20688;-90
2023/10/10 11:39:57;;;;;;;7.28;3.90;;;17.80;99.90;;;;;;4938330;29;20181;-91
2023/10/10 11:42:36;;;;;;;6.78;4.05;;;18.00;99.90;;;;;;4938304;29;20304;-90
2023/10/10 11:45:06;;;;;;;10.48;4.70;;;18.20;99.90;;;;;;4938453;29;20166;-90
2023/10/10 11:47:42;;;;;;;8.13;4.72;;;18.30;99.90;;;;;;4937883;29;20188;-85
2023/10/10 11:50:11;;;;;;;5.53;3.70;;;18.50;99.90;;;;;;4938444;29;20593;-91
2023/10/10 11:52:57;;;;;;;5.13;3.47;;;18.60;99.90;;;;;;4921117;29;20181;-90
2023/10/10 11:55:28;;;;;;;8.20;4.85;;;18.70;99.90;;;;;;4938360;29;20605;-94
2023/10/10 11:58:06;;;;;;;10.80;4.22;;;18.70;99.90;;;;;;4938241;29;20210;-93
2023/10/10 12:00:44;;;;;;;12.52;4.90;;;18.70;99.90;;;;;;4921440;29;20170;-91
2023/10/10 12:03:11;;;;;;;5.63;3.92;;;18.90;99.90;;;;;;4938354;29;20245;-92
2023/10/10 12:05:49;;;;;;;7.28;4.45;;;19.00;99.90;;;;;;4921275;29;20605;-92
2023/10/10 12:08:27;;;;;;;8.77;4.53;;;19.00;99.90;;;;;;4902022;29;20182;-92
2023/10/10 12:11:09;;;;;;;7.80;4.60;;;19.00;99.90;;;;;;4917963;29;20209;-91
2023/10/10 12:13:37;;;;;;;8.23;4.50;;;19.00;99.90;;;;;;4917731;29;20266;-92
2023/10/10 12:16:10;;;;;;;12.98;5.07;;;18.90;99.90;;;;;;4919116;29;20622;-90
2023/10/10 12:18:43;;;;;;;8.60;5.07;;;18.80;99.90;;;;;;4917476;29;20270;-88
2023/10/10 12:21:14;;;;;;;8.52;4.90;;;18.60;99.90;;;;;;4918040;29;20175;-87
2023/10/10 12:23:41;;;;;;;7.78;5.10;;;18.50;99.90;;;;;;4917701;29;20182;-92
2023/10/10 12:26:09;;;;;;;12.15;5.43;;;18.40;99.90;;;;;;4917957;29;20182;-92
2023/10/10 12:28:35;;;;;;;9.85;4.85;;;18.30;99.90;;;;;;4917693;29;20179;-92
2023/10/10 12:31:04;;;;;;;9.07;5.20;;;18.20;99.90;;;;;;4918913;29;20174;-93
2023/10/10 12:33:31;;;;;;;7.75;4.85;;;18.10;99.90;;;;;;4918708;29;20522;-92
2023/10/10 12:35:57;;;;;;;8.90;4.75;;;18.10;99.90;;;;;;4919766;29;20444;-88
2023/10/10 12:38:23;;;;;;;7.78;4.57;;;18.00;99.90;;;;;;4937446;29;20727;-91
2023/10/10 12:40:54;;;;;;;10.32;5.00;;;18.00;99.90;;;;;;4901964;29;20185;-91
2023/10/10 12:43:25;;;;;;;11.98;5.00;;;18.10;99.90;;;;;;4918824;29;20622;-93
2023/10/10 12:45:54;;;;;;;11.10;4.93;;;18.10;99.90;;;;;;4917794;29;20185;-93
2023/10/10 12:48:22;;;;;;;6.60;4.65;;;18.20;99.90;;;;;;4918879;29;20255;-89
2023/10/10 12:50:52;;;;;;;13.52;4.72;;;18.20;99.90;;;;;;4918902;29;20618;-92
2023/10/10 12:53:20;;;;;;;7.53;4.68;;;18.20;99.90;;;;;;4918381;29;20199;-88
2023/10/10 12:55:55;;;;;;;8.10;5.18;;;18.20;99.90;;;;;;4917251;29;20175;-91
2023/10/10 12:58:24;;;;;;;7.65;4.80;;;18.20;99.90;;;;;;4918772;29;20672;-91
2023/10/10 13:00:53;;;;;;;7.15;4.35;;;18.20;99.90;;;;;;4918512;29;20178;-88
2023/10/10 13:03:27;;;;;;;9.40;4.90;;;18.10;99.90;;;;;;4901378;29;20183;-93
2023/10/10 13:06:02;;;;;;;9.50;4.60;;;18.10;99.90;;;;;;4920596;29;20167;-93
2023/10/10 13:08:38;;;;;;;6.80;4.85;;;18.10;99.90;;;;;;4937541;29;20229;-93
2023/10/10 13:11:20;;;;;;;9.15;5.85;;;18.10;99.90;;;;;;4936429;29;20174;-92
2023/10/10 13:13:56;;;;;;;7.55;4.93;;;18.20;99.90;;;;;;4937171;29;20226;-90
2023/10/10 13:16:25;;;;;;;7.78;5.82;;;18.20;99.90;;;;;;4919705;29;20174;-88
2023/10/10 13:18:57;;;;;;;12.18;5.70;;;18.20;99.90;;;;;;4936876;29;20272;-92
2023/10/10 13:21:23;;;;;;;10.18;6.03;;;18.20;99.90;;;;;;4924068;29;20182;-92
2023/10/10 13:23:55;;;;;;;12.73;5.95;;;18.20;99.90;;;;;;4940885;29;20177;-91
2023/10/10 13:26:21;;;;;;;10.10;5.95;;;18.10;99.90;;;;;;4940037;29;20208;-94
2023/10/10 13:28:47;;;;;;;10.88;6.15;;;18.10;99.90;;;;;;4939817;29;20614;-94
2023/10/10 13:31:15;;;;;;;11.50;6.55;;;18.10;99.90;;;;;;4923742;29;20194;-93
2023/10/10 13:33:43;;;;;;;12.75;6.63;;;18.00;99.90;;;;;;4923910;29;20189;-94
2023/10/10 13:36:15;;;;;;;14.85;8.20;;;18.00;99.90;;;;;;4940715;29;20225;-88
2023/10/10 13:38:49;;;;;;;9.45;7.40;;;17.90;99.90;;;;;;4922781;29;20217;-87
2023/10/10 13:41:22;;;;;;;15.48;7.85;;;17.90;99.90;;;;;;4938940;29;20209;-89
2023/10/10 13:44:02;;;;;;;13.40;8.70;;;17.80;99.90;;;;;;4940607;29;20173;-88
2023/10/10 13:46:37;;;;;;;15.18;8.50;;;17.80;99.90;;;;;;4939782;29;20170;-87
2023/10/10 13:49:04;;;;;;;14.55;9.52;;;17.70;99.90;;;;;;4939878;29;20612;-85
2023/10/10 13:51:39;;;;;;;15.13;9.45;;;17.80;99.90;;;;;;4922700;29;20703;-86
2023/10/10 13:54:05;;;;;;;11.82;9.30;;;17.80;99.90;;;;;;4938377;29;20177;-85
2023/10/10 13:56:31;;;;;;;14.35;10.18;;;17.80;99.90;;;;;;4939850;29;20178;-86
2023/10/10 13:59:01;;;;;;;14.07;9.18;;;18.00;99.90;;;;;;4938601;29;20189;-84
2023/10/10 14:06:47;;;;;;;14.43;9.20;;;18.50;99.90;;;;;;4940065;29;20192;-85
2023/10/10 14:09:22;;;;;;;12.45;9.27;;;18.60;99.90;;;;;;4922444;29;20182;-92
2023/10/10 14:11:50;;;;;;;13.00;9.20;;;18.60;99.90;;;;;;4939775;29;20217;-89
2023/10/10 14:14:15;;;;;;;12.93;9.63;;;18.70;99.90;;;;;;4939621;29;20170;-84
2023/10/10 14:16:41;;;;;;;14.25;10.95;;;18.70;99.90;;;;;;4939576;29;20198;-85
2023/10/10 14:19:07;;;;;;;13.13;10.68;;;18.80;99.90;;;;;;4939557;29;20181;-84
2023/10/10 14:21:33;;;;;;;14.30;10.85;;;18.90;99.90;;;;;;4922482;29;20276;-89
2023/10/10 14:24:04;;;;;;;13.93;9.98;;;18.90;99.90;;;;;;4937971;29;20182;-87
2023/10/10 14:26:34;;;;;;;16.15;10.07;;;18.90;99.90;;;;;;4939371;29;20559;-84
2023/10/10 14:29:12;;;;;;;16.40;10.90;;;18.90;99.90;;;;;;4939274;29;20189;-85
2023/10/10 14:31:42;;;;;;;16.20;10.52;;;18.90;99.90;;;;;;4939144;29;20162;-88
2023/10/10 14:34:11;;;;;;;14.27;9.07;;;18.90;99.90;;;;;;4922095;29;20554;-88
2023/10/10 14:36:39;;;;;;;13.98;10.20;;;18.80;99.90;;;;;;4921805;29;20681;-85
2023/10/10 14:39:08;;;;;;;15.13;9.80;;;18.80;99.90;;;;;;4938829;29;20635;-87
2023/10/10 14:41:34;;;;;;;9.85;8.60;;;18.80;99.90;;;;;;4937910;29;20233;-87
2023/10/10 14:44:03;;;;;;;13.13;10.10;;;18.70;99.90;;;;;;4939168;29;20182;-84
2023/10/10 14:46:34;;;;;;;15.50;10.13;;;18.70;99.90;;;;;;4921906;29;20182;-87
2023/10/10 14:49:16;;;;;;;12.18;9.88;;;18.70;99.90;;;;;;4937701;29;20181;-89
2023/10/10 14:51:48;;;;;;;14.30;10.05;;;18.70;99.90;;;;;;4938720;29;20162;-86
2023/10/10 14:54:17;;;;;;;13.15;9.82;;;18.70;99.90;;;;;;4938417;29;20240;-87
2023/10/10 14:56:49;;;;;;;13.45;9.48;;;18.70;99.90;;;;;;4938399;29;20676;-90
2023/10/10 14:59:18;;;;;;;12.10;9.20;;;18.70;99.90;;;;;;4938531;29;20203;-85
2023/10/10 15:01:53;;;;;;;14.32;9.52;;;18.70;99.90;;;;;;4938677;29;20281;-88
2023/10/10 15:04:21;;;;;;;11.75;9.25;;;18.70;99.90;;;;;;4938579;29;20234;-84
2023/10/10 15:06:53;;;;;;;12.82;9.40;;;18.60;99.90;;;;;;4938543;29;20548;-85
2023/10/10 15:09:20;;;;;;;12.82;8.60;;;18.60;99.90;;;;;;4938271;29;20178;-85
2023/10/10 15:11:47;;;;;;;15.27;9.07;;;18.60;99.90;;;;;;4938184;29;20222;-86
2023/10/10 15:14:14;;;;;;;14.35;9.85;;;18.60;99.90;;;;;;4938394;29;20178;-89
2023/10/10 15:16:41;;;;;;;12.35;8.75;;;18.50;99.90;;;;;;4938259;29;20212;-87
2023/10/10 15:19:08;;;;;;;15.35;9.88;;;18.60;99.90;;;;;;4937050;29;20177;-86
2023/10/10 15:21:38;;;;;;;11.57;8.70;;;18.60;99.90;;;;;;4921391;29;20185;-86
2023/10/10 15:24:11;;;;;;;12.40;9.63;;;18.60;99.90;;;;;;4920963;29;20182;-88
2023/10/10 15:26:47;;;;;;;12.32;8.77;;;18.70;99.90;;;;;;4921255;29;20170;-86
2023/10/10 15:29:15;;;;;;;11.18;8.50;;;18.70;99.90;;;;;;4937160;29;20591;-90
2023/10/10 15:31:41;;;;;;;12.20;8.55;;;18.80;99.90;;;;;;4921269;29;20178;-86
2023/10/10 15:34:13;;;;;;;11.90;8.48;;;18.80;99.90;;;;;;4920923;29;20636;-85
2023/10/10 15:36:43;;;;;;;12.85;8.80;;;18.90;99.90;;;;;;4937860;29;20268;-86
2023/10/10 15:39:10;;;;;;;10.95;8.13;;;18.90;99.90;;;;;;4920744;29;20205;-86
2023/10/10 15:41:37;;;;;;;15.13;8.25;;;18.90;99.90;;;;;;4938026;29;20173;-86
2023/10/10 15:44:08;;;;;;;10.65;7.80;;;18.90;99.90;;;;;;4920352;29;20581;-91
2023/10/10 15:46:37;;;;;;;12.43;8.27;;;18.90;99.90;;;;;;4937840;29;20162;-89
2023/10/10 15:49:09;;;;;;;11.52;8.27;;;18.80;99.90;;;;;;4920594;29;20276;-92
2023/10/10 15:51:38;;;;;;;11.55;8.25;;;18.70;99.90;;;;;;4937719;29;20198;-85
2023/10/10 15:54:06;;;;;;;11.32;8.25;;;18.70;99.90;;;;;;4937311;29;20192;-85
2023/10/10 15:56:32;;;;;;;12.48;8.48;;;18.60;99.90;;;;;;4937633;29;20161;-85
2023/10/10 15:58:58;;;;;;;12.73;8.60;;;18.60;99.90;;;;;;4937549;29;20174;-86
2023/10/10 16:01:29;;;;;;;12.98;8.82;;;18.50;99.90;;;;;;4920581;29;20182;-90
2023/10/10 16:04:13;;;;;;;12.32;8.88;;;18.50;99.90;;;;;;4920356;29;20190;-87
2023/10/10 16:06:41;;;;;;;13.05;7.85;;;18.50;99.90;;;;;;4920481;29;20235;-85
2023/10/10 16:09:14;;;;;;;11.13;7.93;;;18.40;99.90;;;;;;4935998;29;20182;-86
2023/10/10 16:11:42;;;;;;;11.30;7.43;;;18.40;99.90;;;;;;4937424;29;20492;-86
2023/10/10 16:14:12;;;;;;;9.48;7.03;;;18.40;99.90;;;;;;4936024;29;20182;-88
2023/10/10 16:16:45;;;;;;;8.13;6.43;;;18.30;99.90;;;;;;4936220;29;20186;-87
2023/10/10 16:19:15;;;;;;;7.95;6.20;;;18.30;99.90;;;;;;4920130;29;20329;-86